Stafford, TX (77477)

2:40 AM CST on February 01, 2015 (GMT -0600)
Dove Country | Change Station
CLOSE
Current Station
Personal Weather Station
Location: Stafford, TX
Elevation: 75 ft
Nearby Weather Stations

Elev 75 ft 29.61 °N, 95.56 °W | Updated 6 seconds ago

Overcast
Overcast
62.8 °F
Feels Like 62.8 °F
N
0.9
Wind Variable Wind from SE
Gusts 3.0 mph

Today
High -- | Low -- °F
--% Chance of Precip.
Yesterday
High -- | Low -- °F
Precip. -- in
7:12 AM 5:59 PM
Waxing Gibbous, 94% visible
Pressure 29.93 in
Visibility 10.0 miles
Clouds Few 900 ft
Scattered Clouds 2300 ft
Scattered Clouds 5500 ft
Dew Point 62 °F
Humidity 97%
Rainfall 0.00 in
Snow Depth Not available.
UV 0 out of 12
Pollen 8.30 out of 12
Air Quality Not available.
Flu Activity Not available.
SPECI KSGR 010837Z AUTO 15008KT 10SM FEW009 SCT023 SCT055 18/17 A2993 RMK AO2 T01780167

More Conditions Fewer Conditions

Pressure 29.93 in
Visibility 10.0 miles
Clouds Few 900 ft
Scattered Clouds 2300 ft
Scattered Clouds 5500 ft
Dew Point 62 °F
Humidity 97%
Rainfall 0.00 in
Snow Depth Not available.
UV 0 out of 12
Pollen 8.30 out of 12
Air Quality Not available.
Flu Activity Not available.
SPECI KSGR 010837Z AUTO 15008KT 10SM FEW009 SCT023 SCT055 18/17 A2993 RMK AO2 T01780167

More Conditions Fewer Conditions

10-Day Weather Forecast

Almanac

Astronomy

Feb. 01, 2015 Rise Set
Actual Time
Civil Twilight
Nautical Twilight
Astronomical Twilight
Moon
Length of Visible Light
Length of Day
Tomorrow will be .
, % of the Moon is Illuminated

Today's Extremes

State Highs State Lows

Community

WunderPhotos

Upload Photos

1,792,338 photos uploaded!

WunderBlogs® & News

Nearby

Air Quality

  Air Quality AQ Index Pollutant
Not available.

Snow Depth

Station Depth Elevation

Earthquake Activity

City Distance Mag. Time & Date
Minimum magnitude displayed is 2.5.

Coastal Water Temperatures

Place Temperature

Nearby Weather Stations